sensor_id;sensor_type;location;lat;lon;timestamp;P1;durP1;ratioP1;P2;durP2;ratioP2
57389;SDS011;43217;52.694;6.214;2023-03-08T00:01:01;6.68;;;5.63;;
57389;SDS011;43217;52.694;6.214;2023-03-08T00:03:27;5.63;;;4.80;;
57389;SDS011;43217;52.694;6.214;2023-03-08T00:05:53;6.63;;;5.28;;
57389;SDS011;43217;52.694;6.214;2023-03-08T00:08:19;5.63;;;4.97;;
57389;SDS011;43217;52.694;6.214;2023-03-08T00:10:44;8.40;;;4.60;;
57389;SDS011;43217;52.694;6.214;2023-03-08T00:13:10;4.97;;;4.47;;
57389;SDS011;43217;52.694;6.214;2023-03-08T00:15:37;5.30;;;4.50;;
57389;SDS011;43217;52.694;6.214;2023-03-08T00:18:03;5.85;;;5.20;;
57389;SDS011;43217;52.694;6.214;2023-03-08T00:20:30;8.20;;;4.80;;
57389;SDS011;43217;52.694;6.214;2023-03-08T00:22:56;8.23;;;5.72;;
57389;SDS011;43217;52.694;6.214;2023-03-08T00:25:22;6.63;;;5.90;;
57389;SDS011;43217;52.694;6.214;2023-03-08T00:27:48;8.98;;;6.57;;
57389;SDS011;43217;52.694;6.214;2023-03-08T00:30:14;9.48;;;6.97;;
57389;SDS011;43217;52.694;6.214;2023-03-08T00:32:40;8.38;;;6.93;;
57389;SDS011;43217;52.694;6.214;2023-03-08T00:35:05;9.65;;;7.90;;
57389;SDS011;43217;52.694;6.214;2023-03-08T00:37:32;10.80;;;8.98;;
57389;SDS011;43217;52.694;6.214;2023-03-08T00:39:58;12.45;;;10.32;;
57389;SDS011;43217;52.694;6.214;2023-03-08T00:42:23;12.00;;;10.90;;
57389;SDS011;43217;52.694;6.214;2023-03-08T00:44:49;14.05;;;11.93;;
57389;SDS011;43217;52.694;6.214;2023-03-08T00:47:15;13.10;;;11.23;;
57389;SDS011;43217;52.694;6.214;2023-03-08T00:49:41;14.20;;;12.20;;
57389;SDS011;43217;52.694;6.214;2023-03-08T00:52:07;14.05;;;12.60;;
57389;SDS011;43217;52.694;6.214;2023-03-08T00:54:34;17.48;;;14.20;;
57389;SDS011;43217;52.694;6.214;2023-03-08T00:57:00;16.83;;;13.70;;
57389;SDS011;43217;52.694;6.214;2023-03-08T00:59:25;16.10;;;14.43;;
57389;SDS011;43217;52.694;6.214;2023-03-08T01:01:53;17.35;;;15.65;;
57389;SDS011;43217;52.694;6.214;2023-03-08T01:04:19;17.90;;;15.80;;
57389;SDS011;43217;52.694;6.214;2023-03-08T01:06:44;19.52;;;16.02;;
57389;SDS011;43217;52.694;6.214;2023-03-08T01:09:10;18.23;;;16.42;;
57389;SDS011;43217;52.694;6.214;2023-03-08T01:11:36;19.83;;;17.73;;
57389;SDS011;43217;52.694;6.214;2023-03-08T01:14:02;18.45;;;16.55;;
57389;SDS011;43217;52.694;6.214;2023-03-08T01:16:30;20.25;;;17.42;;
57389;SDS011;43217;52.694;6.214;2023-03-08T01:18:57;18.95;;;16.27;;
57389;SDS011;43217;52.694;6.214;2023-03-08T01:21:24;18.45;;;16.63;;
57389;SDS011;43217;52.694;6.214;2023-03-08T01:23:51;18.70;;;16.75;;
57389;SDS011;43217;52.694;6.214;2023-03-08T01:26:21;18.67;;;15.27;;
57389;SDS011;43217;52.694;6.214;2023-03-08T01:28:48;18.35;;;15.70;;
57389;SDS011;43217;52.694;6.214;2023-03-08T01:31:19;18.13;;;15.60;;
57389;SDS011;43217;52.694;6.214;2023-03-08T01:33:47;19.55;;;15.32;;
57389;SDS011;43217;52.694;6.214;2023-03-08T01:36:14;16.13;;;14.43;;
57389;SDS011;43217;52.694;6.214;2023-03-08T01:38:41;16.70;;;14.90;;
57389;SDS011;43217;52.694;6.214;2023-03-08T01:43:40;18.02;;;15.10;;
57389;SDS011;43217;52.694;6.214;2023-03-08T01:48:59;15.93;;;14.07;;
57389;SDS011;43217;52.694;6.214;2023-03-08T01:51:42;15.27;;;13.68;;
57389;SDS011;43217;52.694;6.214;2023-03-08T01:57:04;15.55;;;13.50;;
57389;SDS011;43217;52.694;6.214;2023-03-08T01:59:35;14.75;;;12.45;;
57389;SDS011;43217;52.694;6.214;2023-03-08T02:02:02;14.65;;;12.20;;
57389;SDS011;43217;52.694;6.214;2023-03-08T02:04:29;17.25;;;13.05;;
57389;SDS011;43217;52.694;6.214;2023-03-08T02:06:54;15.25;;;12.80;;
57389;SDS011;43217;52.694;6.214;2023-03-08T02:09:20;15.45;;;12.68;;
57389;SDS011;43217;52.694;6.214;2023-03-08T02:11:46;13.18;;;11.60;;
57389;SDS011;43217;52.694;6.214;2023-03-08T02:14:12;15.23;;;12.55;;
57389;SDS011;43217;52.694;6.214;2023-03-08T02:16:38;14.15;;;12.60;;
57389;SDS011;43217;52.694;6.214;2023-03-08T02:19:05;13.40;;;12.00;;
57389;SDS011;43217;52.694;6.214;2023-03-08T02:21:36;14.88;;;12.25;;
57389;SDS011;43217;52.694;6.214;2023-03-08T02:24:05;13.38;;;12.07;;
57389;SDS011;43217;52.694;6.214;2023-03-08T02:26:42;12.70;;;11.43;;
57389;SDS011;43217;52.694;6.214;2023-03-08T02:29:09;14.73;;;12.02;;
57389;SDS011;43217;52.694;6.214;2023-03-08T02:31:34;14.50;;;11.95;;
57389;SDS011;43217;52.694;6.214;2023-03-08T02:34:00;13.90;;;12.15;;
57389;SDS011;43217;52.694;6.214;2023-03-08T02:36:26;13.38;;;11.63;;
57389;SDS011;43217;52.694;6.214;2023-03-08T02:38:51;13.82;;;11.60;;
57389;SDS011;43217;52.694;6.214;2023-03-08T02:41:17;14.60;;;12.38;;
57389;SDS011;43217;52.694;6.214;2023-03-08T02:43:44;13.10;;;11.27;;
57389;SDS011;43217;52.694;6.214;2023-03-08T02:46:10;12.25;;;11.05;;
57389;SDS011;43217;52.694;6.214;2023-03-08T02:48:37;12.40;;;11.20;;
57389;SDS011;43217;52.694;6.214;2023-03-08T02:51:02;13.20;;;10.45;;
57389;SDS011;43217;52.694;6.214;2023-03-08T02:53:28;12.98;;;11.65;;
57389;SDS011;43217;52.694;6.214;2023-03-08T02:55:54;13.57;;;11.00;;
57389;SDS011;43217;52.694;6.214;2023-03-08T02:58:20;13.00;;;11.10;;
57389;SDS011;43217;52.694;6.214;2023-03-08T03:00:45;13.38;;;10.93;;
57389;SDS011;43217;52.694;6.214;2023-03-08T03:03:11;11.77;;;10.35;;
57389;SDS011;43217;52.694;6.214;2023-03-08T03:05:43;12.25;;;11.02;;
57389;SDS011;43217;52.694;6.214;2023-03-08T03:08:09;13.05;;;10.88;;
57389;SDS011;43217;52.694;6.214;2023-03-08T03:10:36;12.02;;;10.82;;
57389;SDS011;43217;52.694;6.214;2023-03-08T03:13:03;12.00;;;10.82;;
57389;SDS011;43217;52.694;6.214;2023-03-08T03:15:30;11.75;;;10.55;;
57389;SDS011;43217;52.694;6.214;2023-03-08T03:17:56;11.73;;;10.57;;
57389;SDS011;43217;52.694;6.214;2023-03-08T03:20:22;13.98;;;11.40;;
57389;SDS011;43217;52.694;6.214;2023-03-08T03:22:47;14.57;;;11.50;;
57389;SDS011;43217;52.694;6.214;2023-03-08T03:25:13;11.85;;;10.65;;
57389;SDS011;43217;52.694;6.214;2023-03-08T03:27:39;13.30;;;11.93;;
57389;SDS011;43217;52.694;6.214;2023-03-08T03:30:05;12.00;;;10.65;;
57389;SDS011;43217;52.694;6.214;2023-03-08T03:32:32;15.98;;;11.55;;
57389;SDS011;43217;52.694;6.214;2023-03-08T03:34:58;12.10;;;10.93;;
57389;SDS011;43217;52.694;6.214;2023-03-08T03:37:23;12.95;;;11.63;;
57389;SDS011;43217;52.694;6.214;2023-03-08T03:39:49;12.93;;;11.70;;
57389;SDS011;43217;52.694;6.214;2023-03-08T03:42:15;11.82;;;10.60;;
57389;SDS011;43217;52.694;6.214;2023-03-08T03:44:41;12.80;;;11.50;;
57389;SDS011;43217;52.694;6.214;2023-03-08T03:47:06;13.23;;;11.48;;
57389;SDS011;43217;52.694;6.214;2023-03-08T03:49:32;13.20;;;11.75;;
57389;SDS011;43217;52.694;6.214;2023-03-08T03:51:58;12.63;;;11.23;;
57389;SDS011;43217;52.694;6.214;2023-03-08T03:54:23;12.90;;;11.50;;
57389;SDS011;43217;52.694;6.214;2023-03-08T03:56:49;12.27;;;11.18;;
57389;SDS011;43217;52.694;6.214;2023-03-08T03:59:15;13.77;;;11.70;;
57389;SDS011;43217;52.694;6.214;2023-03-08T04:01:41;14.00;;;11.10;;
57389;SDS011;43217;52.694;6.214;2023-03-08T04:04:08;13.80;;;11.90;;
57389;SDS011;43217;52.694;6.214;2023-03-08T04:09:02;12.70;;;11.40;;
57389;SDS011;43217;52.694;6.214;2023-03-08T04:11:36;12.57;;;11.32;;
57389;SDS011;43217;52.694;6.214;2023-03-08T04:14:03;12.82;;;11.55;;
57389;SDS011;43217;52.694;6.214;2023-03-08T04:16:30;12.45;;;11.15;;
57389;SDS011;43217;52.694;6.214;2023-03-08T04:18:59;12.00;;;10.90;;
57389;SDS011;43217;52.694;6.214;2023-03-08T04:21:27;11.73;;;10.60;;
57389;SDS011;43217;52.694;6.214;2023-03-08T04:23:56;11.30;;;10.13;;
57389;SDS011;43217;52.694;6.214;2023-03-08T04:26:22;11.30;;;10.20;;
57389;SDS011;43217;52.694;6.214;2023-03-08T04:28:48;11.73;;;10.52;;
57389;SDS011;43217;52.694;6.214;2023-03-08T04:31:14;10.52;;;9.52;;
57389;SDS011;43217;52.694;6.214;2023-03-08T04:33:46;11.95;;;10.70;;
57389;SDS011;43217;52.694;6.214;2023-03-08T04:36:12;11.20;;;10.13;;
57389;SDS011;43217;52.694;6.214;2023-03-08T04:38:38;10.70;;;9.60;;
57389;SDS011;43217;52.694;6.214;2023-03-08T04:41:04;11.05;;;8.82;;
57389;SDS011;43217;52.694;6.214;2023-03-08T04:43:35;10.65;;;9.50;;
57389;SDS011;43217;52.694;6.214;2023-03-08T04:46:03;11.10;;;10.10;;
57389;SDS011;43217;52.694;6.214;2023-03-08T04:48:29;9.82;;;8.88;;
57389;SDS011;43217;52.694;6.214;2023-03-08T04:50:56;10.02;;;9.02;;
57389;SDS011;43217;52.694;6.214;2023-03-08T04:53:24;9.60;;;8.82;;
57389;SDS011;43217;52.694;6.214;2023-03-08T04:55:50;10.48;;;9.10;;
57389;SDS011;43217;52.694;6.214;2023-03-08T04:58:17;10.55;;;9.55;;
57389;SDS011;43217;52.694;6.214;2023-03-08T05:00:43;10.38;;;9.38;;
57389;SDS011;43217;52.694;6.214;2023-03-08T05:03:08;9.95;;;9.02;;
57389;SDS011;43217;52.694;6.214;2023-03-08T05:05:35;11.10;;;9.95;;
57389;SDS011;43217;52.694;6.214;2023-03-08T05:08:00;10.32;;;9.23;;
57389;SDS011;43217;52.694;6.214;2023-03-08T05:10:30;11.27;;;8.85;;
57389;SDS011;43217;52.694;6.214;2023-03-08T05:12:56;10.73;;;9.82;;
57389;SDS011;43217;52.694;6.214;2023-03-08T05:15:22;10.15;;;9.13;;
57389;SDS011;43217;52.694;6.214;2023-03-08T05:17:48;10.93;;;9.73;;
57389;SDS011;43217;52.694;6.214;2023-03-08T05:20:15;11.18;;;10.07;;
57389;SDS011;43217;52.694;6.214;2023-03-08T05:22:41;11.20;;;10.20;;
57389;SDS011;43217;52.694;6.214;2023-03-08T05:25:07;12.13;;;11.05;;
57389;SDS011;43217;52.694;6.214;2023-03-08T05:27:33;11.15;;;10.05;;
57389;SDS011;43217;52.694;6.214;2023-03-08T05:29:59;12.50;;;11.25;;
57389;SDS011;43217;52.694;6.214;2023-03-08T05:32:25;12.50;;;11.30;;
57389;SDS011;43217;52.694;6.214;2023-03-08T05:34:51;12.43;;;11.23;;
57389;SDS011;43217;52.694;6.214;2023-03-08T05:37:17;18.80;;;12.65;;
57389;SDS011;43217;52.694;6.214;2023-03-08T05:39:43;13.98;;;12.63;;
57389;SDS011;43217;52.694;6.214;2023-03-08T05:42:08;14.02;;;12.80;;
57389;SDS011;43217;52.694;6.214;2023-03-08T05:44:36;13.38;;;12.27;;
57389;SDS011;43217;52.694;6.214;2023-03-08T05:47:02;13.85;;;12.55;;
57389;SDS011;43217;52.694;6.214;2023-03-08T05:49:28;14.07;;;12.02;;
57389;SDS011;43217;52.694;6.214;2023-03-08T05:51:53;14.40;;;12.20;;
57389;SDS011;43217;52.694;6.214;2023-03-08T05:54:19;18.60;;;16.83;;
57389;SDS011;43217;52.694;6.214;2023-03-08T05:56:45;14.32;;;13.02;;
57389;SDS011;43217;52.694;6.214;2023-03-08T05:59:11;14.20;;;12.98;;
57389;SDS011;43217;52.694;6.214;2023-03-08T06:01:37;32.55;;;29.45;;
57389;SDS011;43217;52.694;6.214;2023-03-08T06:04:03;20.63;;;18.48;;
57389;SDS011;43217;52.694;6.214;2023-03-08T06:06:28;16.88;;;15.35;;
57389;SDS011;43217;52.694;6.214;2023-03-08T06:08:54;14.60;;;13.02;;
57389;SDS011;43217;52.694;6.214;2023-03-08T06:11:20;13.48;;;12.18;;
57389;SDS011;43217;52.694;6.214;2023-03-08T06:13:46;12.80;;;11.60;;
57389;SDS011;43217;52.694;6.214;2023-03-08T06:16:12;11.70;;;10.50;;
57389;SDS011;43217;52.694;6.214;2023-03-08T06:18:38;12.00;;;10.48;;
57389;SDS011;43217;52.694;6.214;2023-03-08T06:21:12;11.98;;;10.77;;
57389;SDS011;43217;52.694;6.214;2023-03-08T06:23:40;12.77;;;11.57;;
57389;SDS011;43217;52.694;6.214;2023-03-08T06:26:06;12.23;;;10.98;;
57389;SDS011;43217;52.694;6.214;2023-03-08T06:28:33;12.37;;;11.27;;
57389;SDS011;43217;52.694;6.214;2023-03-08T06:30:59;12.02;;;10.85;;
57389;SDS011;43217;52.694;6.214;2023-03-08T06:33:29;11.55;;;10.35;;
57389;SDS011;43217;52.694;6.214;2023-03-08T06:35:57;10.93;;;9.95;;
57389;SDS011;43217;52.694;6.214;2023-03-08T06:38:23;11.77;;;10.60;;
57389;SDS011;43217;52.694;6.214;2023-03-08T06:40:49;11.77;;;10.70;;
57389;SDS011;43217;52.694;6.214;2023-03-08T06:43:14;17.88;;;16.05;;
57389;SDS011;43217;52.694;6.214;2023-03-08T06:45:40;15.15;;;13.80;;
57389;SDS011;43217;52.694;6.214;2023-03-08T06:48:06;14.93;;;13.07;;
57389;SDS011;43217;52.694;6.214;2023-03-08T06:50:32;15.30;;;13.75;;
57389;SDS011;43217;52.694;6.214;2023-03-08T06:52:57;14.05;;;12.68;;
57389;SDS011;43217;52.694;6.214;2023-03-08T06:55:24;13.18;;;12.00;;
57389;SDS011;43217;52.694;6.214;2023-03-08T06:57:50;13.65;;;12.35;;
57389;SDS011;43217;52.694;6.214;2023-03-08T07:00:16;14.80;;;13.50;;
57389;SDS011;43217;52.694;6.214;2023-03-08T07:02:42;13.07;;;11.68;;
57389;SDS011;43217;52.694;6.214;2023-03-08T07:05:08;16.92;;;15.18;;
57389;SDS011;43217;52.694;6.214;2023-03-08T07:07:33;14.85;;;13.23;;
57389;SDS011;43217;52.694;6.214;2023-03-08T07:10:04;14.98;;;13.30;;
57389;SDS011;43217;52.694;6.214;2023-03-08T07:12:30;13.90;;;12.75;;
57389;SDS011;43217;52.694;6.214;2023-03-08T07:14:56;15.68;;;14.20;;
57389;SDS011;43217;52.694;6.214;2023-03-08T07:17:23;16.42;;;14.73;;
57389;SDS011;43217;52.694;6.214;2023-03-08T07:19:49;18.85;;;17.00;;
57389;SDS011;43217;52.694;6.214;2023-03-08T07:22:14;17.25;;;15.65;;
57389;SDS011;43217;52.694;6.214;2023-03-08T07:24:40;18.33;;;16.33;;
57389;SDS011;43217;52.694;6.214;2023-03-08T07:27:08;19.50;;;16.30;;
57389;SDS011;43217;52.694;6.214;2023-03-08T07:29:36;23.50;;;20.88;;
57389;SDS011;43217;52.694;6.214;2023-03-08T07:32:02;35.97;;;20.88;;
57389;SDS011;43217;52.694;6.214;2023-03-08T07:34:28;37.45;;;24.23;;
57389;SDS011;43217;52.694;6.214;2023-03-08T07:36:53;40.42;;;27.17;;
57389;SDS011;43217;52.694;6.214;2023-03-08T07:39:25;62.15;;;24.60;;
57389;SDS011;43217;52.694;6.214;2023-03-08T07:41:51;55.47;;;23.30;;
57389;SDS011;43217;52.694;6.214;2023-03-08T07:44:16;61.30;;;22.75;;
57389;SDS011;43217;52.694;6.214;2023-03-08T07:46:42;74.72;;;29.15;;
57389;SDS011;43217;52.694;6.214;2023-03-08T07:49:09;68.93;;;29.02;;
57389;SDS011;43217;52.694;6.214;2023-03-08T07:51:35;77.05;;;31.70;;
57389;SDS011;43217;52.694;6.214;2023-03-08T07:56:35;82.35;;;29.92;;
57389;SDS011;43217;52.694;6.214;2023-03-08T07:59:01;59.83;;;32.17;;
57389;SDS011;43217;52.694;6.214;2023-03-08T08:01:26;49.28;;;33.40;;
57389;SDS011;43217;52.694;6.214;2023-03-08T08:03:52;58.30;;;29.60;;
57389;SDS011;43217;52.694;6.214;2023-03-08T08:06:18;51.88;;;34.63;;
57389;SDS011;43217;52.694;6.214;2023-03-08T08:08:43;60.35;;;30.63;;
57389;SDS011;43217;52.694;6.214;2023-03-08T08:11:13;53.58;;;30.67;;
57389;SDS011;43217;52.694;6.214;2023-03-08T08:13:40;55.05;;;32.85;;
57389;SDS011;43217;52.694;6.214;2023-03-08T08:16:06;70.88;;;34.10;;
57389;SDS011;43217;52.694;6.214;2023-03-08T08:18:32;56.35;;;34.17;;
57389;SDS011;43217;52.694;6.214;2023-03-08T08:20:59;63.92;;;33.85;;
57389;SDS011;43217;52.694;6.214;2023-03-08T08:23:29;96.20;;;41.92;;
57389;SDS011;43217;52.694;6.214;2023-03-08T08:25:55;56.20;;;34.58;;
57389;SDS011;43217;52.694;6.214;2023-03-08T08:28:22;65.60;;;35.67;;
57389;SDS011;43217;52.694;6.214;2023-03-08T08:30:56;50.60;;;33.72;;
57389;SDS011;43217;52.694;6.214;2023-03-08T08:33:23;42.15;;;32.88;;
57389;SDS011;43217;52.694;6.214;2023-03-08T08:35:49;49.60;;;34.35;;
57389;SDS011;43217;52.694;6.214;2023-03-08T08:38:15;46.78;;;31.20;;
57389;SDS011;43217;52.694;6.214;2023-03-08T08:40:40;44.47;;;32.47;;
57389;SDS011;43217;52.694;6.214;2023-03-08T08:43:06;48.88;;;32.75;;
57389;SDS011;43217;52.694;6.214;2023-03-08T08:45:31;53.78;;;33.22;;
57389;SDS011;43217;52.694;6.214;2023-03-08T08:47:57;61.15;;;32.90;;
57389;SDS011;43217;52.694;6.214;2023-03-08T08:50:23;38.17;;;29.13;;
57389;SDS011;43217;52.694;6.214;2023-03-08T08:52:48;55.45;;;31.88;;
57389;SDS011;43217;52.694;6.214;2023-03-08T08:55:14;51.70;;;31.10;;
57389;SDS011;43217;52.694;6.214;2023-03-08T08:57:40;33.53;;;27.90;;
57389;SDS011;43217;52.694;6.214;2023-03-08T09:00:06;31.95;;;26.08;;
57389;SDS011;43217;52.694;6.214;2023-03-08T09:02:35;30.30;;;24.23;;
57389;SDS011;43217;52.694;6.214;2023-03-08T09:05:01;32.50;;;24.95;;
57389;SDS011;43217;52.694;6.214;2023-03-08T09:07:26;28.02;;;23.98;;
57389;SDS011;43217;52.694;6.214;2023-03-08T09:09:55;26.95;;;23.65;;
57389;SDS011;43217;52.694;6.214;2023-03-08T09:12:22;27.20;;;23.75;;
57389;SDS011;43217;52.694;6.214;2023-03-08T09:14:47;30.42;;;24.73;;
57389;SDS011;43217;52.694;6.214;2023-03-08T09:17:13;32.00;;;25.08;;
57389;SDS011;43217;52.694;6.214;2023-03-08T09:19:38;29.75;;;24.50;;
57389;SDS011;43217;52.694;6.214;2023-03-08T09:22:04;30.05;;;25.33;;
57389;SDS011;43217;52.694;6.214;2023-03-08T09:24:30;32.63;;;25.15;;
57389;SDS011;43217;52.694;6.214;2023-03-08T09:26:55;34.35;;;26.67;;
57389;SDS011;43217;52.694;6.214;2023-03-08T09:29:21;32.58;;;27.23;;
57389;SDS011;43217;52.694;6.214;2023-03-08T09:31:46;29.35;;;25.98;;
57389;SDS011;43217;52.694;6.214;2023-03-08T09:34:12;37.65;;;28.50;;
57389;SDS011;43217;52.694;6.214;2023-03-08T09:36:39;35.00;;;27.77;;
57389;SDS011;43217;52.694;6.214;2023-03-08T09:39:06;33.45;;;27.88;;
57389;SDS011;43217;52.694;6.214;2023-03-08T09:44:26;37.85;;;29.58;;
57389;SDS011;43217;52.694;6.214;2023-03-08T09:47:06;42.85;;;32.00;;
57389;SDS011;43217;52.694;6.214;2023-03-08T09:49:40;46.50;;;33.35;;
57389;SDS011;43217;52.694;6.214;2023-03-08T09:54:59;39.40;;;30.15;;
57389;SDS011;43217;52.694;6.214;2023-03-08T09:57:35;39.33;;;30.77;;
57389;SDS011;43217;52.694;6.214;2023-03-08T10:00:05;38.30;;;30.73;;
57389;SDS011;43217;52.694;6.214;2023-03-08T10:02:52;38.27;;;29.30;;
57389;SDS011;43217;52.694;6.214;2023-03-08T10:13:15;39.55;;;31.33;;
57389;SDS011;43217;52.694;6.214;2023-03-08T10:15:51;40.88;;;30.50;;
57389;SDS011;43217;52.694;6.214;2023-03-08T10:21:10;42.65;;;27.05;;
57389;SDS011;43217;52.694;6.214;2023-03-08T10:23:41;64.53;;;30.20;;
57389;SDS011;43217;52.694;6.214;2023-03-08T10:26:10;29.50;;;23.80;;
57389;SDS011;43217;52.694;6.214;2023-03-08T10:28:37;30.05;;;23.77;;
57389;SDS011;43217;52.694;6.214;2023-03-08T10:31:18;25.48;;;22.70;;
57389;SDS011;43217;52.694;6.214;2023-03-08T10:33:52;28.85;;;23.10;;
57389;SDS011;43217;52.694;6.214;2023-03-08T10:36:24;23.95;;;20.73;;
57389;SDS011;43217;52.694;6.214;2023-03-08T10:38:58;25.10;;;21.05;;
57389;SDS011;43217;52.694;6.214;2023-03-08T10:41:29;27.65;;;20.08;;
57389;SDS011;43217;52.694;6.214;2023-03-08T10:43:57;30.00;;;21.02;;
57389;SDS011;43217;52.694;6.214;2023-03-08T10:46:27;45.30;;;24.38;;
57389;SDS011;43217;52.694;6.214;2023-03-08T10:49:12;32.17;;;22.17;;
57389;SDS011;43217;52.694;6.214;2023-03-08T10:51:50;22.20;;;18.65;;
57389;SDS011;43217;52.694;6.214;2023-03-08T10:54:17;26.38;;;19.15;;
57389;SDS011;43217;52.694;6.214;2023-03-08T10:56:44;26.27;;;19.52;;
57389;SDS011;43217;52.694;6.214;2023-03-08T10:59:16;24.55;;;19.38;;
57389;SDS011;43217;52.694;6.214;2023-03-08T11:01:49;29.05;;;19.73;;
57389;SDS011;43217;52.694;6.214;2023-03-08T11:04:18;23.02;;;19.15;;
57389;SDS011;43217;52.694;6.214;2023-03-08T11:06:45;22.70;;;18.13;;
57389;SDS011;43217;52.694;6.214;2023-03-08T11:09:19;23.10;;;18.83;;
57389;SDS011;43217;52.694;6.214;2023-03-08T11:11:51;23.38;;;18.27;;
57389;SDS011;43217;52.694;6.214;2023-03-08T11:14:17;21.70;;;17.75;;
57389;SDS011;43217;52.694;6.214;2023-03-08T11:21:52;18.98;;;16.13;;
57389;SDS011;43217;52.694;6.214;2023-03-08T11:35:54;16.25;;;14.25;;
57389;SDS011;43217;52.694;6.214;2023-03-08T11:38:45;14.63;;;13.05;;
57389;SDS011;43217;52.694;6.214;2023-03-08T11:49:35;16.65;;;13.50;;
57389;SDS011;43217;52.694;6.214;2023-03-08T12:00:27;14.00;;;11.73;;
57389;SDS011;43217;52.694;6.214;2023-03-08T12:03:11;13.23;;;11.82;;
57389;SDS011;43217;52.694;6.214;2023-03-08T12:05:45;14.90;;;12.30;;
57389;SDS011;43217;52.694;6.214;2023-03-08T12:10:51;15.60;;;11.20;;
57389;SDS011;43217;52.694;6.214;2023-03-08T12:13:27;13.73;;;10.93;;
57389;SDS011;43217;52.694;6.214;2023-03-08T12:18:43;14.77;;;11.88;;
57389;SDS011;43217;52.694;6.214;2023-03-08T12:26:45;12.73;;;10.45;;
57389;SDS011;43217;52.694;6.214;2023-03-08T12:29:25;12.57;;;10.60;;
57389;SDS011;43217;52.694;6.214;2023-03-08T12:32:00;12.63;;;10.10;;
57389;SDS011;43217;52.694;6.214;2023-03-08T12:37:53;14.63;;;10.05;;
57389;SDS011;43217;52.694;6.214;2023-03-08T12:40:05;16.33;;;10.40;;
57389;SDS011;43217;52.694;6.214;2023-03-08T12:43:02;16.52;;;10.85;;
57389;SDS011;43217;52.694;6.214;2023-03-08T12:46:08;19.08;;;11.65;;
57389;SDS011;43217;52.694;6.214;2023-03-08T12:48:38;16.00;;;11.48;;
57389;SDS011;43217;52.694;6.214;2023-03-08T13:07:17;13.73;;;9.32;;
57389;SDS011;43217;52.694;6.214;2023-03-08T13:10:05;10.32;;;8.10;;
57389;SDS011;43217;52.694;6.214;2023-03-08T13:15:30;9.95;;;7.53;;
57389;SDS011;43217;52.694;6.214;2023-03-08T13:18:07;10.88;;;7.80;;
57389;SDS011;43217;52.694;6.214;2023-03-08T13:23:09;9.65;;;7.07;;
57389;SDS011;43217;52.694;6.214;2023-03-08T13:28:41;8.68;;;6.45;;
57389;SDS011;43217;52.694;6.214;2023-03-08T13:31:13;9.50;;;6.85;;
57389;SDS011;43217;52.694;6.214;2023-03-08T13:33:47;10.90;;;7.65;;
57389;SDS011;43217;52.694;6.214;2023-03-08T13:41:41;10.27;;;6.63;;
57389;SDS011;43217;52.694;6.214;2023-03-08T13:46:43;10.57;;;7.25;;
57389;SDS011;43217;52.694;6.214;2023-03-08T13:49:21;9.40;;;7.22;;
57389;SDS011;43217;52.694;6.214;2023-03-08T13:52:13;10.45;;;7.38;;
57389;SDS011;43217;52.694;6.214;2023-03-08T13:54:42;10.23;;;7.13;;
57389;SDS011;43217;52.694;6.214;2023-03-08T13:57:21;12.43;;;7.82;;
57389;SDS011;43217;52.694;6.214;2023-03-08T13:59:52;11.52;;;7.88;;
57389;SDS011;43217;52.694;6.214;2023-03-08T14:02:24;9.50;;;7.55;;
57389;SDS011;43217;52.694;6.214;2023-03-08T14:04:54;10.52;;;8.18;;
57389;SDS011;43217;52.694;6.214;2023-03-08T14:07:24;11.18;;;7.43;;
57389;SDS011;43217;52.694;6.214;2023-03-08T14:09:55;9.13;;;6.53;;
57389;SDS011;43217;52.694;6.214;2023-03-08T14:12:22;9.25;;;6.43;;
57389;SDS011;43217;52.694;6.214;2023-03-08T14:14:52;9.50;;;6.32;;
57389;SDS011;43217;52.694;6.214;2023-03-08T14:17:24;8.85;;;6.75;;
57389;SDS011;43217;52.694;6.214;2023-03-08T14:19:53;6.88;;;5.18;;
57389;SDS011;43217;52.694;6.214;2023-03-08T14:22:39;6.97;;;5.10;;
57389;SDS011;43217;52.694;6.214;2023-03-08T14:25:27;6.65;;;4.75;;
57389;SDS011;43217;52.694;6.214;2023-03-08T14:27:55;4.72;;;4.03;;
57389;SDS011;43217;52.694;6.214;2023-03-08T14:30:25;5.77;;;4.23;;
57389;SDS011;43217;52.694;6.214;2023-03-08T14:32:57;7.10;;;4.90;;
57389;SDS011;43217;52.694;6.214;2023-03-08T14:35:27;8.82;;;5.75;;
57389;SDS011;43217;52.694;6.214;2023-03-08T14:37:55;7.47;;;4.90;;
57389;SDS011;43217;52.694;6.214;2023-03-08T14:42:59;6.70;;;4.57;;
57389;SDS011;43217;52.694;6.214;2023-03-08T14:45:41;6.45;;;4.47;;
57389;SDS011;43217;52.694;6.214;2023-03-08T14:48:23;6.70;;;4.38;;
57389;SDS011;43217;52.694;6.214;2023-03-08T14:53:35;7.53;;;3.78;;
57389;SDS011;43217;52.694;6.214;2023-03-08T14:58:39;4.68;;;3.08;;
57389;SDS011;43217;52.694;6.214;2023-03-08T15:01:06;5.38;;;3.30;;
57389;SDS011;43217;52.694;6.214;2023-03-08T15:03:32;5.20;;;3.28;;
57389;SDS011;43217;52.694;6.214;2023-03-08T15:05:58;5.25;;;2.97;;
57389;SDS011;43217;52.694;6.214;2023-03-08T15:08:32;5.18;;;3.00;;
57389;SDS011;43217;52.694;6.214;2023-03-08T15:10:58;5.38;;;3.30;;
57389;SDS011;43217;52.694;6.214;2023-03-08T15:13:23;5.25;;;2.90;;
57389;SDS011;43217;52.694;6.214;2023-03-08T15:15:49;5.65;;;3.50;;
57389;SDS011;43217;52.694;6.214;2023-03-08T15:18:15;6.65;;;4.40;;
57389;SDS011;43217;52.694;6.214;2023-03-08T15:20:41;5.40;;;4.00;;
57389;SDS011;43217;52.694;6.214;2023-03-08T15:23:10;5.88;;;3.58;;
57389;SDS011;43217;52.694;6.214;2023-03-08T15:25:41;5.63;;;4.35;;
57389;SDS011;43217;52.694;6.214;2023-03-08T15:28:09;5.53;;;3.70;;
57389;SDS011;43217;52.694;6.214;2023-03-08T15:30:37;6.68;;;4.32;;
57389;SDS011;43217;52.694;6.214;2023-03-08T15:33:04;6.18;;;4.38;;
57389;SDS011;43217;52.694;6.214;2023-03-08T15:35:30;7.22;;;4.53;;
57389;SDS011;43217;52.694;6.214;2023-03-08T15:37:55;7.30;;;4.93;;
57389;SDS011;43217;52.694;6.214;2023-03-08T15:40:22;9.13;;;5.63;;
57389;SDS011;43217;52.694;6.214;2023-03-08T15:42:49;8.77;;;4.57;;
57389;SDS011;43217;52.694;6.214;2023-03-08T15:45:15;6.55;;;4.20;;
57389;SDS011;43217;52.694;6.214;2023-03-08T15:47:41;8.90;;;5.38;;
57389;SDS011;43217;52.694;6.214;2023-03-08T15:50:14;6.38;;;4.47;;
57389;SDS011;43217;52.694;6.214;2023-03-08T15:52:41;8.32;;;5.35;;
57389;SDS011;43217;52.694;6.214;2023-03-08T15:55:09;8.65;;;5.57;;
57389;SDS011;43217;52.694;6.214;2023-03-08T15:57:36;6.88;;;4.53;;
57389;SDS011;43217;52.694;6.214;2023-03-08T16:00:02;7.82;;;5.18;;
57389;SDS011;43217;52.694;6.214;2023-03-08T16:02:35;10.43;;;5.95;;
57389;SDS011;43217;52.694;6.214;2023-03-08T16:05:02;7.43;;;5.28;;
57389;SDS011;43217;52.694;6.214;2023-03-08T16:07:30;8.45;;;5.05;;
57389;SDS011;43217;52.694;6.214;2023-03-08T16:09:56;7.15;;;4.40;;
57389;SDS011;43217;52.694;6.214;2023-03-08T16:12:21;8.05;;;4.78;;
57389;SDS011;43217;52.694;6.214;2023-03-08T16:14:48;5.25;;;3.80;;
57389;SDS011;43217;52.694;6.214;2023-03-08T16:17:14;5.28;;;3.70;;
57389;SDS011;43217;52.694;6.214;2023-03-08T16:19:41;5.25;;;4.18;;
57389;SDS011;43217;52.694;6.214;2023-03-08T16:22:08;6.28;;;4.30;;
57389;SDS011;43217;52.694;6.214;2023-03-08T16:24:34;6.07;;;4.70;;
57389;SDS011;43217;52.694;6.214;2023-03-08T16:27:00;5.53;;;3.72;;
57389;SDS011;43217;52.694;6.214;2023-03-08T16:29:28;6.07;;;4.32;;
57389;SDS011;43217;52.694;6.214;2023-03-08T16:31:55;10.35;;;4.72;;